Time;durP1;ratioP1;P1;durP2;ratioP2;P2;SDS_P1;SDS_P2;PMS_P1;PMS_P2;Temp;Humidity;BMP_temperature;BMP_pressure;BME280_temperature;BME280_humidity;BME280_pressure;Samples;Min_cycle;Max_cycle;Signal;HPM_P1;HPM_P2
2022/12/04 00:00:16;;;;;;;51.25;25.95;;;;;;;7.41;60.90;101161.96;2131737;90;25828;-80
2022/12/04 00:03:46;;;;;;;51.28;23.80;;;;;;;7.42;60.85;101154.65;2132712;90;25937;-81
2022/12/04 00:07:06;;;;;;;49.05;23.75;;;;;;;7.40;60.75;101149.81;2133568;91;25795;-81
2022/12/04 00:10:27;;;;;;;50.28;23.65;;;;;;;7.38;60.73;101148.84;2133489;91;30173;-80
2022/12/04 00:13:57;;;;;;;47.17;24.35;;;;;;;7.39;60.69;101142.86;2133313;91;25748;-79
2022/12/04 00:17:24;;;;;;;48.73;25.40;;;;;;;7.39;60.68;101144.53;2109650;91;25902;-79
2022/12/04 00:20:57;;;;;;;46.65;24.12;;;;;;;7.39;60.63;101145.83;2108458;91;25804;-79
2022/12/04 00:24:40;;;;;;;;;;;;;;;;;;;;;
2022/12/04 00:28:10;;;;;;;50.63;25.60;;;;;;;7.38;60.57;101164.81;2075514;93;25915;-79
2022/12/04 00:35:14;;;;;;;46.40;23.47;;;;;;;7.36;60.49;101159.95;1979275;98;25791;-79
2022/12/04 00:38:44;;;;;;;41.53;21.87;;;;;;;7.34;60.48;101151.69;1956600;99;25909;-79
2022/12/04 00:42:13;;;;;;;48.28;23.45;;;;;;;7.33;60.47;101147.73;1987913;95;25835;-80
2022/12/04 00:49:29;;;;;;;46.05;23.57;;;;;;;7.37;60.40;101157.86;1974611;98;25792;-81
2022/12/04 00:52:52;;;;;;;47.40;23.40;;;;;;;7.34;60.34;101159.47;1999169;97;26538;-80
2022/12/04 00:56:20;;;;;;;46.40;22.85;;;;;;;7.33;60.35;101160.30;2006877;96;26062;-80
2022/12/04 00:59:52;;;;;;;46.55;24.95;;;;;;;7.33;60.31;101150.33;2010198;96;25883;-80
2022/12/04 01:03:23;;;;;;;46.68;24.40;;;;;;;7.34;60.29;101145.62;2022224;97;26461;-81
2022/12/04 01:06:45;;;;;;;45.17;22.62;;;;;;;7.34;60.29;101155.58;2013967;96;25891;-80
2022/12/04 01:10:18;;;;;;;44.73;22.25;;;;;;;7.35;60.21;101161.66;2004040;96;25728;-79
2022/12/04 01:13:48;;;;;;;51.63;24.00;;;;;;;7.34;60.20;101152.11;1982655;97;25752;-79
2022/12/04 01:17:20;;;;;;;38.80;21.55;;;;;;;7.32;60.17;101154.64;1964131;98;25974;-80
2022/12/04 01:20:56;;;;;;;41.30;22.62;;;;;;;7.31;60.14;101156.72;1963284;99;25898;-79
2022/12/04 01:24:21;;;;;;;41.73;23.25;;;;;;;7.33;60.16;101151.63;1880714;103;26111;-80
2022/12/04 01:27:57;;;;;;;43.27;24.27;;;;;;;7.32;60.16;101149.45;1878675;104;27297;-80
2022/12/04 01:31:33;;;;;;;47.08;23.70;;;;;;;7.32;60.08;101163.72;1871462;103;26146;-80
2022/12/04 01:35:08;;;;;;;43.17;23.20;;;;;;;7.31;60.10;101159.32;1865136;105;25852;-80
2022/12/04 01:38:37;;;;;;;41.15;22.17;;;;;;;7.31;60.05;101158.44;1865311;105;25949;-80
2022/12/04 01:42:09;;;;;;;42.78;22.48;;;;;;;7.31;60.05;101160.61;1865567;104;25910;-80
2022/12/04 01:45:55;;;;;;;;;;;;;;;;;;;;;
2022/12/04 01:49:56;;;;;;;;;;;;;;;;;;;;;
2022/12/04 01:53:30;;;;;;;41.35;22.13;;;;;;;7.34;60.01;101155.58;1868780;104;25375;-80
2022/12/04 01:57:42;;;;;;;38.83;20.90;;;;;;;7.33;59.97;101157.70;1878172;104;25706;-80
2022/12/04 02:00:57;;;;;;;42.27;23.70;;;;;;;7.34;59.99;101152.98;1865510;103;26465;-80
2022/12/04 02:04:19;;;;;;;46.63;22.95;;;;;;;7.33;59.94;101155.52;1874992;103;25800;-81
2022/12/04 02:07:45;;;;;;;42.48;22.87;;;;;;;7.33;59.95;101155.11;1857939;105;26051;-81
2022/12/04 02:11:39;;;;;;;45.10;23.50;;;;;;;7.33;59.90;101148.63;1925333;100;25843;-81
2022/12/04 02:15:44;;;;;;;40.17;21.85;;;;;;;7.31;59.82;101141.58;1927122;100;25975;-81
2022/12/04 02:19:57;;;;;;;40.23;22.67;;;;;;;7.29;59.86;101128.96;1977141;89;25952;-80
2022/12/04 02:23:57;;;;;;;35.35;20.55;;;;;;;7.28;59.84;101139.71;2218920;88;25770;-80
2022/12/04 02:27:44;;;;;;;40.10;21.62;;;;;;;7.27;59.85;101130.16;2179353;88;25751;-81
2022/12/04 02:31:21;;;;;;;37.58;21.50;;;;;;;7.27;59.80;101124.98;2171842;89;25867;-80
2022/12/04 02:38:51;;;;;;;33.00;19.52;;;;;;;7.27;59.77;101136.65;2092862;91;25899;-80
2022/12/04 02:42:47;;;;;;;36.00;20.55;;;;;;;7.29;59.76;101133.73;2109681;91;25765;-80
2022/12/04 02:46:33;;;;;;;42.17;20.60;;;;;;;7.30;59.76;101133.32;2041929;95;25885;-80
2022/12/04 02:50:14;;;;;;;36.17;19.45;;;;;;;7.31;59.73;101125.59;2031105;95;25802;-80
2022/12/04 02:53:42;;;;;;;36.40;19.57;;;;;;;7.32;59.71;101122.59;2032709;94;25910;-80
2022/12/04 02:57:25;;;;;;;38.20;20.45;;;;;;;7.34;59.68;101132.65;2042587;95;26010;-80
2022/12/04 03:00:52;;;;;;;36.13;19.82;;;;;;;7.34;59.63;101146.91;2026871;95;25775;-80
2022/12/04 03:04:37;;;;;;;36.40;18.57;;;;;;;7.32;59.64;101137.78;2035223;94;25746;-80
2022/12/04 03:08:08;;;;;;;38.35;19.82;;;;;;;7.30;59.65;101138.51;2059285;94;25947;-80
2022/12/04 03:11:45;;;;;;;32.53;19.50;;;;;;;7.29;59.61;101135.44;2045879;94;25759;-80
2022/12/04 03:15:34;;;;;;;36.85;19.30;;;;;;;7.27;59.58;101124.09;2055745;94;25779;-80
2022/12/04 03:19:39;;;;;;;35.20;20.02;;;;;;;7.27;59.59;101122.38;1994908;97;25786;-79
2022/12/04 03:23:24;;;;;;;36.53;18.85;;;;;;;7.27;59.54;101118.91;2012948;94;25725;-79
2022/12/04 03:26:59;;;;;;;40.35;19.35;;;;;;;7.26;59.54;101122.33;2019498;94;25794;-79
2022/12/04 03:30:43;;;;;;;33.28;18.65;;;;;;;7.25;59.54;101112.33;2014741;94;25800;-79
2022/12/04 03:34:16;;;;;;;33.23;18.52;;;;;;;7.25;59.54;101107.14;2015216;95;25779;-80
2022/12/04 03:37:59;;;;;;;41.33;18.85;;;;;;;7.25;59.53;101123.11;2011817;96;25752;-79
2022/12/04 03:41:48;;;;;;;34.60;18.27;;;;;;;7.26;59.49;101126.22;2015793;95;25729;-79
2022/12/04 03:45:58;;;;;;;33.78;19.10;;;;;;;7.22;59.46;101120.37;2010525;95;25981;-80
2022/12/04 03:49:58;;;;;;;34.30;17.65;;;;;;;7.23;59.48;101115.69;1959269;98;25784;-80
2022/12/04 03:53:42;;;;;;;39.80;19.35;;;;;;;7.19;59.47;101105.58;1995662;96;25913;-77
2022/12/04 03:57:22;;;;;;;34.03;18.48;;;;;;;7.20;59.48;101106.45;1996340;96;25862;-80
2022/12/04 04:00:54;;;;;;;37.35;18.50;;;;;;;7.21;59.43;101107.81;2057586;94;25867;-79
2022/12/04 04:04:37;;;;;;;33.35;16.90;;;;;;;7.21;59.43;101107.81;2058143;93;25931;-80
2022/12/04 04:12:03;;;;;;;31.05;18.48;;;;;;;7.23;59.41;101107.49;1985565;97;25894;-78
2022/12/04 04:27:23;;;;;;;27.35;15.85;;;;;;;7.24;59.34;101096.70;1990576;97;25751;-79
2022/12/04 04:30:46;;;;;;;28.35;17.45;;;;;;;7.21;59.27;101096.14;2003451;97;25916;-79
2022/12/04 04:34:38;;;;;;;32.58;17.48;;;;;;;7.21;59.31;101097.85;2003790;97;25441;-80
2022/12/04 04:38:24;;;;;;;28.10;15.50;;;;;;;7.22;59.32;101089.25;2005977;96;25885;-78
2022/12/04 04:42:18;;;;;;;26.37;15.93;;;;;;;7.21;59.27;101080.58;2000050;97;25402;-79
2022/12/04 04:45:51;;;;;;;28.20;15.95;;;;;;;7.22;59.27;101091.46;1982232;97;25929;-79
2022/12/04 04:49:32;;;;;;;23.65;14.23;;;;;;;7.24;59.24;101096.70;2018046;95;25797;-79
2022/12/04 04:52:57;;;;;;;27.42;14.38;;;;;;;7.24;59.18;101104.48;2051442;94;25806;-78
2022/12/04 04:56:25;;;;;;;24.47;14.07;;;;;;;7.23;59.19;101107.91;2043643;94;26156;-78
2022/12/04 04:59:47;;;;;;;30.32;15.65;;;;;;;7.22;59.14;101106.10;2048039;94;25773;-78
2022/12/04 05:03:23;;;;;;;26.83;15.77;;;;;;;7.22;59.12;101108.70;2077810;90;31091;-79
2022/12/04 05:07:04;;;;;;;26.10;15.67;;;;;;;7.23;59.16;101117.86;2153935;89;25783;-78
2022/12/04 05:10:36;;;;;;;25.02;13.75;;;;;;;7.25;59.17;101107.55;2162068;90;25798;-79
2022/12/04 05:14:07;;;;;;;27.07;15.03;;;;;;;7.27;59.12;101113.72;2151063;90;26131;-79
2022/12/04 05:17:35;;;;;;;28.87;14.50;;;;;;;7.27;59.07;101117.20;2171907;89;25618;-79
2022/12/04 05:21:15;;;;;;;25.17;15.20;;;;;;;7.26;59.03;101111.95;2222776;88;25861;-79
2022/12/04 05:24:49;;;;;;;27.62;15.75;;;;;;;7.27;59.07;101121.09;2220608;87;26002;-79
2022/12/04 05:28:12;;;;;;;32.98;15.93;;;;;;;7.27;58.99;101123.68;2176816;89;26459;-80
2022/12/04 05:31:42;;;;;;;29.57;16.55;;;;;;;7.26;58.99;101128.39;2182703;90;25928;-78
2022/12/04 05:35:17;;;;;;;26.02;16.07;;;;;;;7.25;58.92;101132.19;2063660;92;26040;-79
2022/12/04 05:39:04;;;;;;;33.28;16.82;;;;;;;7.22;58.91;101130.36;1978214;97;26101;-80
2022/12/04 05:42:42;;;;;;;23.20;15.48;;;;;;;7.21;58.92;101135.45;1984661;98;25824;-79
2022/12/04 05:46:18;;;;;;;;;;;;;;;7.20;58.89;101131.98;1990132;97;25991;-80
2022/12/04 05:53:54;;;;;;;29.00;16.95;;;;;;;7.17;58.89;101127.05;1983539;97;25934;-80
2022/12/04 06:01:16;;;;;;;28.45;15.88;;;;;;;7.16;58.90;101133.95;1946937;100;25877;-80
2022/12/04 06:04:47;;;;;;;25.15;16.25;;;;;;;7.16;58.87;101126.16;1921081;99;25934;-80
2022/12/04 06:08:22;;;;;;;28.92;15.88;;;;;;;7.17;58.86;101133.53;1921731;101;25778;-80
2022/12/04 06:11:55;;;;;;;29.12;15.93;;;;;;;7.16;58.82;101139.13;1844567;106;25772;-79
2022/12/04 06:15:17;;;;;;;28.75;15.60;;;;;;;7.17;58.79;101138.72;1828910;106;26079;-80
2022/12/04 06:18:38;;;;;;;27.27;16.93;;;;;;;7.16;58.78;101131.77;1850582;106;29468;-81
2022/12/04 06:22:08;;;;;;;30.48;16.48;;;;;;;7.16;58.75;101143.02;1822714;106;25977;-80
2022/12/04 06:29:07;;;;;;;25.70;14.98;;;;;;;7.15;58.69;101151.59;1831684;107;25786;-80
2022/12/04 06:32:27;;;;;;;25.43;15.20;;;;;;;7.14;58.68;101140.75;1832745;107;34944;-80
2022/12/04 06:36:22;;;;;;;26.85;15.75;;;;;;;7.16;58.70;101142.14;1830623;106;25892;-80
2022/12/04 06:39:53;;;;;;;24.52;14.60;;;;;;;7.15;58.65;101159.37;1809417;108;25925;-80
2022/12/04 06:43:33;;;;;;;24.27;14.65;;;;;;;7.17;58.60;101166.84;1832767;106;25841;-80
2022/12/04 06:47:16;;;;;;;26.37;15.68;;;;;;;7.19;58.62;101173.38;1831789;106;26031;-80
2022/12/04 06:50:54;;;;;;;27.50;14.23;;;;;;;7.17;58.50;101159.47;1859128;105;25924;-80
2022/12/04 06:54:25;;;;;;;26.07;16.00;;;;;;;7.15;58.57;101164.56;1855483;104;25861;-81
2022/12/04 06:57:51;;;;;;;23.70;14.38;;;;;;;7.15;58.53;101155.89;1885321;102;26555;-80
2022/12/04 07:01:22;;;;;;;23.38;15.00;;;;;;;7.16;58.52;101162.88;1893311;102;25883;-79
2022/12/04 07:05:13;;;;;;;26.93;15.90;;;;;;;7.18;58.51;101166.01;1904811;102;25858;-80
2022/12/04 07:08:50;;;;;;;26.62;16.20;;;;;;;7.19;58.50;101161.33;1905722;102;25905;-79
2022/12/04 07:12:26;;;;;;;23.85;15.40;;;;;;;7.21;58.44;101162.69;1872049;104;26706;-80
2022/12/04 07:16:09;;;;;;;25.92;15.85;;;;;;;7.20;58.42;101176.06;1873813;102;25541;-80
2022/12/04 07:19:41;;;;;;;29.10;16.17;;;;;;;7.19;58.44;101160.41;1916075;101;26358;-78
2022/12/04 07:23:07;;;;;;;28.80;15.98;;;;;;;7.20;58.41;101172.17;1914492;100;26040;-80
2022/12/04 07:30:20;;;;;;;23.10;15.78;;;;;;;7.22;58.39;101164.45;1876217;102;25929;-81
2022/12/04 07:34:18;;;;;;;;;;;;;;;;;;;;;
2022/12/04 07:41:41;;;;;;;;;;;;;;;7.24;58.32;101172.80;1772723;108;25903;-80
2022/12/04 07:45:21;;;;;;;25.68;14.80;;;;;;;7.25;58.28;101184.06;1766809;108;25836;-80
2022/12/04 07:49:06;;;;;;;25.48;15.38;;;;;;;7.24;58.31;101177.11;1739392;110;25872;-80
2022/12/04 07:52:51;;;;;;;27.50;15.58;;;;;;;7.26;58.25;101191.05;1740519;111;25790;-79
2022/12/04 07:56:19;;;;;;;23.20;13.58;;;;;;;7.26;58.21;101184.16;1740850;110;25920;-79
2022/12/04 07:59:47;;;;;;;22.62;14.55;;;;;;;7.28;58.18;101188.11;1740525;111;26029;-79
2022/12/04 08:03:21;;;;;;;23.60;14.15;;;;;;;7.30;58.18;101195.57;1727270;110;25918;-79
2022/12/04 08:07:01;;;;;;;25.02;15.00;;;;;;;7.31;58.15;101190.45;1692151;113;25986;-79
2022/12/04 08:14:07;;;;;;;21.60;13.83;;;;;;;7.36;58.09;101204.05;1782032;108;25886;-82
2022/12/04 08:17:46;;;;;;;26.25;14.20;;;;;;;7.36;58.07;101192.38;1772267;108;25978;-82
2022/12/04 08:24:54;;;;;;;22.55;12.73;;;;;;;7.38;58.02;101195.53;1791378;108;26512;-82
2022/12/04 08:28:23;;;;;;;19.02;14.00;;;;;;;7.40;58.01;101186.55;1789134;108;25959;-78
2022/12/04 08:31:55;;;;;;;21.15;13.32;;;;;;;7.41;57.97;101186.61;1786560;105;25916;-82
2022/12/04 08:38:49;;;;;;;22.27;13.43;;;;;;;7.42;57.95;101187.08;1832069;105;26096;-82
2022/12/04 08:42:51;;;;;;;;;;;;;;;;;;;;;
2022/12/04 08:46:15;;;;;;;18.87;13.50;;;;;;;7.46;57.92;101187.73;1800414;106;26054;-84
2022/12/04 08:49:38;;;;;;;20.82;13.83;;;;;;;7.48;57.86;101188.68;1813276;103;25839;-81
2022/12/04 08:53:17;;;;;;;20.55;13.65;;;;;;;7.46;57.81;101181.63;1884186;102;26074;-81
2022/12/04 08:56:45;;;;;;;18.92;13.32;;;;;;;7.47;57.77;101176.53;1828096;102;27024;-81
2022/12/04 09:00:31;;;;;;;;;;;;;;;;;;;;;
2022/12/04 09:03:56;;;;;;;19.75;12.65;;;;;;;7.51;57.72;101184.05;1847147;105;25820;-82
2022/12/04 09:07:22;;;;;;;20.48;13.90;;;;;;;7.51;57.69;101184.05;1886314;103;25894;-79
2022/12/04 09:11:06;;;;;;;18.50;13.15;;;;;;;7.51;57.66;101185.36;1871206;102;26069;-84
2022/12/04 09:14:30;;;;;;;22.20;13.30;;;;;;;7.53;57.63;101182.44;1889736;103;26219;-83
2022/12/04 09:17:53;;;;;;;16.60;12.33;;;;;;;7.52;57.58;101176.33;1884367;103;25843;-83
2022/12/04 09:21:23;;;;;;;15.53;12.47;;;;;;;7.53;57.58;101178.13;1906040;101;26257;-82
2022/12/04 09:24:50;;;;;;;20.65;13.08;;;;;;;7.54;57.56;101174.72;1928842;101;25848;-83
2022/12/04 09:28:21;;;;;;;17.90;12.33;;;;;;;7.53;57.49;101169.47;1895412;103;25424;-82
2022/12/04 09:31:50;;;;;;;17.77;12.95;;;;;;;7.55;57.51;101170.41;1875040;103;25804;-82
2022/12/04 09:39:06;;;;;;;18.15;13.22;;;;;;;7.58;57.42;101165.37;1842884;104;26301;-83
2022/12/04 09:43:12;;;;;;;18.48;12.35;;;;;;;7.60;57.44;101155.97;1826254;104;25897;-83
2022/12/04 09:47:19;;;;;;;17.85;11.75;;;;;;;7.63;57.41;101162.61;1837248;105;25907;-83
2022/12/04 09:50:45;;;;;;;18.32;12.00;;;;;;;7.67;57.36;101159.74;1808322;107;25962;-82
2022/12/04 09:54:17;;;;;;;15.05;11.95;;;;;;;7.68;57.33;101159.80;1840298;106;26220;-81
2022/12/04 09:57:43;;;;;;;15.30;11.83;;;;;;;7.70;57.32;101159.48;1838274;106;25831;-82
2022/12/04 10:01:04;;;;;;;16.15;11.57;;;;;;;7.74;57.34;101146.23;1844352;104;26033;-80
2022/12/04 10:04:31;;;;;;;14.87;11.50;;;;;;;7.76;57.33;101148.48;1854590;104;31149;-84
2022/12/04 10:08:39;;;;;;;17.27;12.43;;;;;;;7.79;57.30;101134.34;1865586;104;25827;-82
2022/12/04 10:12:30;;;;;;;16.52;11.88;;;;;;;7.81;57.22;101139.22;1952209;98;25793;-82
2022/12/04 10:20:54;;;;;;;20.97;13.25;;;;;;;7.90;57.16;101128.38;1947026;100;25457;-77
2022/12/04 10:24:37;;;;;;;21.60;14.18;;;;;;;7.93;57.21;101133.69;1924556;100;25846;-78
2022/12/04 10:28:08;;;;;;;18.90;13.40;;;;;;;6.94;56.13;101150.53;1887378;102;25934;-76
2022/12/04 10:31:31;;;;;;;19.50;12.78;;;;;;;5.97;57.71;101139.41;1819430;106;26450;-76
2022/12/04 10:35:06;;;;;;;17.67;12.40;;;;;;;5.41;58.36;101129.88;1848758;103;25938;-82
2022/12/04 10:39:22;;;;;;;20.82;13.20;;;;;;;5.15;59.99;101118.05;1915580;101;25817;-81
2022/12/04 10:43:35;;;;;;;18.90;12.80;;;;;;;5.40;60.98;101115.17;1927242;100;25848;-81
2022/12/04 10:47:13;;;;;;;19.05;12.45;;;;;;;5.69;61.58;101108.11;1968137;98;26108;-82
2022/12/04 10:54:44;;;;;;;19.90;13.30;;;;;;;6.00;61.62;101102.92;1955734;99;25754;-82
2022/12/04 11:02:00;;;;;;;15.53;12.82;;;;;;;6.19;62.00;101105.22;1977395;98;25693;-82
2022/12/04 11:05:54;;;;;;;19.25;12.45;;;;;;;6.22;61.94;101095.02;2007519;95;25975;-82
2022/12/04 11:09:31;;;;;;;16.60;13.08;;;;;;;6.29;62.05;101108.77;1974621;97;25736;-82
2022/12/04 11:13:22;;;;;;;17.00;12.00;;;;;;;6.33;61.71;101081.81;1924473;100;25983;-82
2022/12/04 11:20:33;;;;;;;18.02;12.10;;;;;;;6.51;61.32;101084.85;1865894;104;25862;-81
2022/12/04 11:23:57;;;;;;;20.43;14.28;;;;;;;6.52;61.00;101086.66;1863649;104;26089;-83
2022/12/04 11:27:37;;;;;;;19.67;13.05;;;;;;;6.49;60.89;101090.38;1863932;104;25885;-83
2022/12/04 11:31:11;;;;;;;15.83;12.05;;;;;;;6.50;60.75;101103.39;1821078;107;25898;-81
2022/12/04 11:34:40;;;;;;;14.90;11.45;;;;;;;6.56;60.69;101079.52;1783155;109;26450;-82
2022/12/04 11:38:20;;;;;;;16.50;11.63;;;;;;;6.75;60.53;101082.61;1787991;108;25926;-80
2022/12/04 11:41:41;;;;;;;14.87;12.35;;;;;;;6.94;60.30;101078.83;1784167;109;25789;-82
2022/12/04 11:45:38;;;;;;;;;;;;;;;;;;;;;
